Time;durP1;ratioP1;P1;durP2;ratioP2;P2;SDS_P1;SDS_P2;PMS_P1;PMS_P2;Temp;Humidity;BMP_temperature;BMP_pressure;BME280_temperature;BME280_humidity;BME280_pressure;Samples;Min_cycle;Max_cycle;Signal;HPM_P1;HPM_P2
2023/02/25 00:00:18;;;;;;;19.70;13.27;;;14.00;67.90;;;;;;6235454;22;20340;-75
2023/02/25 00:02:51;;;;;;;24.60;13.77;;;14.00;67.70;;;;;;6280877;22;20007;-74
2023/02/25 00:05:17;;;;;;;26.20;16.43;;;14.00;68.20;;;;;;6308470;22;20007;-75
2023/02/25 00:07:44;;;;;;;25.10;17.58;;;14.00;68.80;;;;;;6280650;22;20086;-74
2023/02/25 00:10:12;;;;;;;24.80;17.95;;;13.90;68.90;;;;;;6280832;22;20003;-74
2023/02/25 00:12:39;;;;;;;32.38;17.25;;;13.90;69.30;;;;;;6307139;22;20025;-74
2023/02/25 00:15:05;;;;;;;28.88;18.40;;;13.90;69.50;;;;;;6307783;22;20436;-73
2023/02/25 00:17:32;;;;;;;23.88;17.90;;;13.90;69.80;;;;;;6308237;22;19999;-74
2023/02/25 00:19:57;;;;;;;25.73;18.88;;;13.90;69.80;;;;;;6307985;22;20004;-74
2023/02/25 00:22:24;;;;;;;26.40;18.50;;;13.90;69.80;;;;;;6307855;22;20038;-74
2023/02/25 00:24:56;;;;;;;29.10;19.60;;;13.80;69.80;;;;;;6307780;22;20492;-73
2023/02/25 00:27:23;;;;;;;28.40;18.60;;;13.90;70.10;;;;;;6307668;22;19999;-73
2023/02/25 00:29:52;;;;;;;26.02;20.02;;;13.90;70.20;;;;;;6307904;22;20009;-75
2023/02/25 00:32:18;;;;;;;24.70;17.63;;;13.90;70.40;;;;;;6308235;22;20006;-73
2023/02/25 00:34:45;;;;;;;24.92;18.92;;;13.80;70.20;;;;;;6307687;22;20011;-73
2023/02/25 00:37:11;;;;;;;32.35;19.88;;;13.80;69.90;;;;;;6280353;22;20003;-75
2023/02/25 00:39:42;;;;;;;28.55;18.83;;;13.90;70.10;;;;;;6307908;22;20078;-73
2023/02/25 00:42:15;;;;;;;27.00;19.77;;;13.90;70.40;;;;;;6308138;22;20069;-73
2023/02/25 00:44:49;;;;;;;30.05;19.77;;;13.90;70.50;;;;;;6305283;22;20003;-73
2023/02/25 00:47:16;;;;;;;25.77;17.35;;;13.90;70.60;;;;;;6307030;22;20061;-72
2023/02/25 00:49:45;;;;;;;22.77;17.23;;;13.80;70.20;;;;;;6307568;22;19999;-74
2023/02/25 00:52:11;;;;;;;23.27;16.98;;;13.80;70.00;;;;;;6308035;22;20003;-73
2023/02/25 00:54:38;;;;;;;26.10;16.58;;;13.80;69.90;;;;;;6307963;22;20360;-74
2023/02/25 00:57:04;;;;;;;24.45;17.25;;;13.80;69.80;;;;;;6280586;22;20007;-73
2023/02/25 00:59:30;;;;;;;21.30;15.90;;;13.80;69.80;;;;;;6307449;22;20368;-74
2023/02/25 01:01:56;;;;;;;21.38;16.60;;;13.80;69.80;;;;;;6307493;22;20016;-75
2023/02/25 01:04:21;;;;;;;29.40;17.17;;;13.80;69.70;;;;;;6280030;22;20488;-74
2023/02/25 01:06:47;;;;;;;25.08;16.92;;;13.80;69.70;;;;;;6307586;22;20022;-73
2023/02/25 01:09:13;;;;;;;24.38;16.40;;;13.70;69.40;;;;;;6307771;22;20310;-74
2023/02/25 01:11:42;;;;;;;24.58;16.45;;;13.70;69.40;;;;;;6308319;22;20070;-73
2023/02/25 01:14:12;;;;;;;23.75;15.95;;;13.70;69.60;;;;;;6308134;22;20007;-74
2023/02/25 01:16:38;;;;;;;23.10;16.52;;;13.70;69.70;;;;;;6307756;22;20003;-74
2023/02/25 01:19:07;;;;;;;26.15;17.70;;;13.60;69.60;;;;;;6308033;22;20333;-72
2023/02/25 01:21:36;;;;;;;22.83;17.20;;;13.60;69.70;;;;;;6307673;22;20000;-74
2023/02/25 01:24:06;;;;;;;30.75;17.70;;;13.60;69.90;;;;;;6307575;22;20003;-75
2023/02/25 01:26:36;;;;;;;23.17;16.08;;;13.60;69.60;;;;;;6307787;22;20440;-73
2023/02/25 01:29:07;;;;;;;23.23;16.95;;;13.60;69.40;;;;;;6307895;22;20000;-74
2023/02/25 01:31:32;;;;;;;22.75;15.98;;;13.50;69.60;;;;;;6308221;22;20515;-74
2023/02/25 01:34:00;;;;;;;28.90;16.95;;;13.50;69.50;;;;;;6307582;22;20086;-73
2023/02/25 01:36:28;;;;;;;25.15;16.98;;;13.40;69.30;;;;;;6307770;22;19995;-74
2023/02/25 01:38:55;;;;;;;24.83;17.67;;;13.40;69.70;;;;;;6307981;22;20086;-70
2023/02/25 01:41:21;;;;;;;31.27;18.15;;;13.50;69.80;;;;;;6307889;22;19999;-73
2023/02/25 01:44:18;;;;;;;24.23;17.42;;;13.50;69.90;;;;;;6307905;22;20081;-73
2023/02/25 01:46:46;;;;;;;28.00;16.25;;;13.40;70.10;;;;;;6296910;22;20007;-74
2023/02/25 01:49:34;;;;;;;24.83;16.17;;;13.40;69.80;;;;;;6319636;22;19979;-75
2023/02/25 01:52:11;;;;;;;25.42;16.33;;;13.40;69.60;;;;;;6312746;22;20132;-73
2023/02/25 01:54:37;;;;;;;25.45;17.02;;;13.50;70.00;;;;;;6308181;22;20478;-74
2023/02/25 01:57:07;;;;;;;26.35;16.80;;;13.50;69.80;;;;;;6308037;22;20387;-73
2023/02/25 01:59:34;;;;;;;23.50;16.98;;;13.50;69.90;;;;;;6280178;22;20090;-75
2023/02/25 02:02:00;;;;;;;30.30;17.63;;;13.50;69.70;;;;;;6244595;23;20016;-73
2023/02/25 02:04:27;;;;;;;22.77;15.10;;;13.50;70.00;;;;;;6245411;23;20079;-74
2023/02/25 02:06:54;;;;;;;23.40;17.25;;;13.50;69.70;;;;;;6244307;23;20035;-73
2023/02/25 02:09:25;;;;;;;26.83;16.98;;;13.50;69.50;;;;;;6246042;23;20028;-73
2023/02/25 02:11:51;;;;;;;28.20;18.30;;;13.40;69.70;;;;;;6245622;23;20003;-73
2023/02/25 02:14:26;;;;;;;25.38;16.45;;;13.40;69.80;;;;;;6245655;23;20012;-74
2023/02/25 02:17:28;;;;;;;25.88;17.52;;;13.40;70.20;;;;;;6245670;23;20426;-73
2023/02/25 02:20:12;;;;;;;26.33;17.02;;;13.40;70.40;;;;;;6244101;23;20082;-74
2023/02/25 02:22:43;;;;;;;26.67;17.00;;;13.40;70.40;;;;;;6245961;23;20325;-74
2023/02/25 02:25:11;;;;;;;19.85;15.82;;;13.40;70.30;;;;;;6245956;23;20000;-73
2023/02/25 02:28:29;;;;;;;25.05;13.35;;;13.40;70.10;;;;;;6246009;23;20004;-73
2023/02/25 02:31:09;;;;;;;25.40;15.93;;;13.40;70.20;;;;;;6069897;23;20022;-74
2023/02/25 02:33:49;;;;;;;24.05;15.52;;;13.40;69.80;;;;;;6094047;23;20488;-73
2023/02/25 02:36:24;;;;;;;22.35;14.18;;;13.40;69.40;;;;;;6182771;23;20004;-73
2023/02/25 02:38:49;;;;;;;19.23;13.77;;;13.50;69.70;;;;;;6245304;23;20000;-73
2023/02/25 02:41:35;;;;;;;20.33;14.52;;;13.50;69.20;;;;;;6245408;23;20007;-73
2023/02/25 02:44:05;;;;;;;22.45;16.15;;;13.50;69.40;;;;;;6245544;23;20004;-73
2023/02/25 02:46:41;;;;;;;22.95;15.50;;;13.50;69.10;;;;;;6245611;23;20485;-74
2023/02/25 02:49:39;;;;;;;21.25;14.90;;;13.40;69.10;;;;;;6245511;23;19997;-73
2023/02/25 02:52:14;;;;;;;19.70;14.68;;;13.40;69.50;;;;;;6247957;23;20303;-73
2023/02/25 02:54:43;;;;;;;21.80;15.05;;;13.40;69.20;;;;;;6247313;23;20012;-72
2023/02/25 02:57:13;;;;;;;24.90;13.80;;;13.40;69.00;;;;;;6248568;23;19996;-72
2023/02/25 03:00:16;;;;;;;20.30;13.25;;;13.40;69.00;;;;;;6250092;22;20004;-73
2023/02/25 03:02:48;;;;;;;19.30;13.43;;;13.50;69.00;;;;;;6282862;22;20003;-73
2023/02/25 03:05:16;;;;;;;19.33;13.57;;;13.50;68.90;;;;;;6310501;22;19999;-73
2023/02/25 03:07:57;;;;;;;21.13;14.60;;;13.60;68.90;;;;;;6310586;22;20452;-73
2023/02/25 03:10:22;;;;;;;26.02;15.20;;;13.60;69.20;;;;;;6283109;22;20015;-73
2023/02/25 03:12:48;;;;;;;22.05;13.15;;;13.60;68.90;;;;;;6310710;22;20003;-74
2023/02/25 03:15:14;;;;;;;18.30;11.82;;;13.70;68.90;;;;;;6310687;22;20014;-73
2023/02/25 03:17:49;;;;;;;19.13;11.90;;;13.70;68.60;;;;;;6310783;22;19995;-73
2023/02/25 03:20:21;;;;;;;18.40;12.40;;;13.80;68.40;;;;;;6283344;22;20387;-72
2023/02/25 03:22:49;;;;;;;17.92;11.52;;;13.80;68.20;;;;;;6310409;22;19999;-73
2023/02/25 03:25:22;;;;;;;20.60;13.55;;;13.80;67.90;;;;;;6310835;22;20041;-74
2023/02/25 03:27:55;;;;;;;23.90;13.27;;;13.80;68.00;;;;;;6310563;22;20003;-74
2023/02/25 03:30:21;;;;;;;23.48;12.45;;;13.80;68.00;;;;;;6283154;22;20433;-73
2023/02/25 03:32:55;;;;;;;23.02;13.20;;;13.70;68.10;;;;;;6310248;22;20052;-72
2023/02/25 03:35:22;;;;;;;16.65;10.50;;;13.80;68.20;;;;;;6310416;22;20090;-72
2023/02/25 03:37:52;;;;;;;16.38;10.55;;;13.80;67.90;;;;;;6310453;22;19995;-73
2023/02/25 03:40:20;;;;;;;25.17;9.57;;;13.80;67.50;;;;;;6282948;22;20007;-73
2023/02/25 03:42:57;;;;;;;18.75;9.23;;;13.80;67.40;;;;;;6310108;22;20002;-74
2023/02/25 03:45:24;;;;;;;15.57;7.80;;;13.90;67.50;;;;;;6310437;22;20022;-73
2023/02/25 03:47:50;;;;;;;14.13;7.70;;;14.00;67.00;;;;;;6310248;22;20460;-73
2023/02/25 03:50:28;;;;;;;15.07;7.70;;;14.00;66.70;;;;;;6310261;22;20077;-72
2023/02/25 03:52:54;;;;;;;15.05;6.65;;;14.10;66.30;;;;;;6282639;22;20007;-72
2023/02/25 03:55:20;;;;;;;11.32;6.65;;;14.10;65.90;;;;;;6310008;22;20053;-74
2023/02/25 03:57:49;;;;;;;11.40;6.07;;;14.20;65.90;;;;;;6310160;22;20054;-73
2023/02/25 04:00:27;;;;;;;11.23;6.03;;;14.30;65.50;;;;;;6309808;22;20023;-73
2023/02/25 04:02:53;;;;;;;16.95;6.72;;;14.30;65.30;;;;;;6308255;22;19995;-74
2023/02/25 04:05:21;;;;;;;15.35;6.35;;;14.30;65.20;;;;;;6308532;22;19996;-73
2023/02/25 04:07:47;;;;;;;12.75;5.90;;;14.40;64.70;;;;;;6308366;22;20006;-73
2023/02/25 04:10:14;;;;;;;15.60;6.38;;;14.40;64.60;;;;;;6308546;22;20003;-74
2023/02/25 04:12:40;;;;;;;11.38;5.28;;;14.50;64.80;;;;;;6308561;22;20025;-75
2023/02/25 04:15:08;;;;;;;10.98;6.18;;;14.50;64.50;;;;;;6308282;22;20065;-72
2023/02/25 04:17:34;;;;;;;12.70;5.47;;;14.60;64.90;;;;;;6308365;22;20003;-73
2023/02/25 04:20:00;;;;;;;11.98;5.90;;;14.60;64.60;;;;;;6308446;22;20429;-72
2023/02/25 04:22:26;;;;;;;12.65;6.10;;;14.70;65.00;;;;;;6308755;22;19995;-74
2023/02/25 04:24:52;;;;;;;15.38;6.85;;;14.70;64.70;;;;;;6281293;22;20018;-72
2023/02/25 04:27:18;;;;;;;12.32;5.93;;;14.70;65.10;;;;;;6308622;22;20075;-73
2023/02/25 04:29:44;;;;;;;8.90;5.38;;;14.80;65.20;;;;;;6308501;22;20340;-73
2023/02/25 04:32:10;;;;;;;11.32;5.80;;;14.80;65.30;;;;;;6307933;22;20085;-74
2023/02/25 04:34:36;;;;;;;11.75;5.25;;;14.80;65.40;;;;;;6308095;22;20011;-73
2023/02/25 04:37:03;;;;;;;15.45;5.55;;;14.80;65.60;;;;;;6308449;22;20436;-74
2023/02/25 04:39:30;;;;;;;9.35;5.40;;;14.90;65.70;;;;;;6308197;22;19999;-73
2023/02/25 04:41:57;;;;;;;14.25;5.53;;;14.90;65.90;;;;;;6308424;22;20420;-73
2023/02/25 04:44:23;;;;;;;13.50;6.10;;;14.90;66.00;;;;;;6308499;22;20031;-73
2023/02/25 04:46:50;;;;;;;13.70;5.25;;;14.90;66.10;;;;;;6308473;22;20325;-74
2023/02/25 04:49:18;;;;;;;12.43;5.45;;;14.90;66.10;;;;;;6308767;22;20435;-73
2023/02/25 04:51:44;;;;;;;13.23;6.07;;;14.90;66.10;;;;;;6315205;22;19999;-73
2023/02/25 04:54:10;;;;;;;12.98;5.85;;;14.90;66.20;;;;;;6334824;22;20007;-73
2023/02/25 04:56:37;;;;;;;20.92;7.70;;;14.90;66.10;;;;;;6306200;22;20060;-73
2023/02/25 04:59:03;;;;;;;20.38;10.23;;;14.90;66.10;;;;;;6308596;22;20082;-74
2023/02/25 05:01:31;;;;;;;18.73;12.50;;;14.90;66.40;;;;;;6308376;22;20128;-74
2023/02/25 05:03:59;;;;;;;23.83;14.77;;;14.80;66.70;;;;;;6308282;22;19999;-73
2023/02/25 05:06:25;;;;;;;22.75;14.77;;;14.70;66.90;;;;;;6307983;22;20413;-72
2023/02/25 05:08:51;;;;;;;20.58;14.70;;;14.60;67.40;;;;;;6307699;22;20007;-74
2023/02/25 05:11:18;;;;;;;21.92;14.38;;;14.50;68.00;;;;;;6307583;22;20064;-74
2023/02/25 05:13:44;;;;;;;19.88;14.00;;;14.50;68.00;;;;;;6307002;22;20015;-74
2023/02/25 05:16:12;;;;;;;20.23;14.50;;;14.40;68.30;;;;;;6307809;22;20026;-73
2023/02/25 05:18:42;;;;;;;21.60;13.15;;;14.40;68.30;;;;;;6307590;22;20003;-73
2023/02/25 05:21:13;;;;;;;23.13;14.10;;;14.30;68.50;;;;;;6280021;22;20003;-73
2023/02/25 05:23:40;;;;;;;26.63;14.07;;;14.30;68.40;;;;;;6307507;22;20029;-73
2023/02/25 05:26:07;;;;;;;21.75;14.63;;;14.30;68.70;;;;;;6307524;22;20003;-73
2023/02/25 05:28:33;;;;;;;20.33;15.23;;;14.20;68.70;;;;;;6307160;22;19998;-74
2023/02/25 05:30:58;;;;;;;22.73;15.88;;;14.20;69.10;;;;;;6307386;22;20000;-73
2023/02/25 05:33:25;;;;;;;21.77;15.52;;;14.10;69.10;;;;;;6307116;22;20007;-72
2023/02/25 05:35:51;;;;;;;23.75;14.50;;;14.00;69.30;;;;;;6307073;22;20003;-74
2023/02/25 05:38:17;;;;;;;24.42;14.98;;;14.00;69.50;;;;;;6307264;22;20449;-73
2023/02/25 05:40:43;;;;;;;21.55;14.30;;;14.00;69.40;;;;;;6307313;22;20004;-72
2023/02/25 05:43:08;;;;;;;22.98;14.75;;;14.00;69.40;;;;;;6279865;22;20014;-73
2023/02/25 05:45:34;;;;;;;19.00;13.25;;;14.00;69.30;;;;;;6279924;22;20053;-73
2023/02/25 05:48:00;;;;;;;22.77;12.77;;;14.00;69.30;;;;;;6307749;22;20061;-73
2023/02/25 05:50:27;;;;;;;25.50;13.45;;;13.90;69.20;;;;;;6307093;22;20003;-72
2023/02/25 05:52:53;;;;;;;22.45;13.88;;;14.00;69.30;;;;;;6307331;22;20506;-72
2023/02/25 05:55:18;;;;;;;23.25;14.45;;;13.90;69.20;;;;;;6279790;22;20019;-75
2023/02/25 05:57:44;;;;;;;21.25;13.43;;;14.00;69.30;;;;;;6307174;22;19999;-74
2023/02/25 06:00:13;;;;;;;23.65;13.05;;;14.00;69.20;;;;;;6306967;22;20369;-73
2023/02/25 06:02:40;;;;;;;19.45;12.40;;;13.90;68.90;;;;;;6306926;22;20052;-73
2023/02/25 06:05:06;;;;;;;21.20;11.95;;;13.90;68.80;;;;;;6307078;22;20073;-73
2023/02/25 06:07:33;;;;;;;17.00;11.43;;;13.90;68.70;;;;;;6307042;22;19995;-73
2023/02/25 06:09:59;;;;;;;20.20;11.65;;;13.90;68.80;;;;;;6307027;22;20004;-74
2023/02/25 06:12:30;;;;;;;21.00;10.90;;;13.90;69.00;;;;;;6306753;22;19995;-73
2023/02/25 06:14:55;;;;;;;21.73;11.63;;;14.00;68.90;;;;;;6306740;22;20034;-73
2023/02/25 06:17:23;;;;;;;25.40;10.27;;;14.00;68.60;;;;;;6307024;22;19999;-73
2023/02/25 06:19:50;;;;;;;18.55;11.70;;;14.10;68.70;;;;;;6306997;22;19999;-74
2023/02/25 06:22:19;;;;;;;19.90;11.80;;;14.10;68.50;;;;;;6306952;22;19995;-73
2023/02/25 06:24:45;;;;;;;22.77;12.68;;;14.00;68.40;;;;;;6306945;22;20049;-72
2023/02/25 06:27:12;;;;;;;24.67;13.23;;;14.00;68.50;;;;;;6307158;22;20075;-73
2023/02/25 06:29:40;;;;;;;23.27;13.95;;;14.00;68.80;;;;;;6307344;22;20084;-73
2023/02/25 06:32:10;;;;;;;22.17;13.70;;;14.00;68.70;;;;;;6307317;22;20014;-73
2023/02/25 06:34:37;;;;;;;25.77;13.95;;;14.00;68.70;;;;;;6279553;22;20050;-74
2023/02/25 06:37:03;;;;;;;26.35;15.07;;;13.90;68.90;;;;;;6307035;22;19995;-73
2023/02/25 06:39:29;;;;;;;22.08;14.45;;;13.90;69.00;;;;;;6307116;22;20443;-74
2023/02/25 06:41:55;;;;;;;27.63;15.90;;;13.90;69.10;;;;;;6307072;22;19995;-74
2023/02/25 06:44:21;;;;;;;32.03;15.57;;;13.90;69.10;;;;;;6306849;22;20033;-73
2023/02/25 06:46:54;;;;;;;28.73;17.02;;;13.90;69.10;;;;;;6306760;22;20006;-73
2023/02/25 06:49:20;;;;;;;23.77;15.55;;;13.80;69.10;;;;;;6306576;22;20003;-74
2023/02/25 06:51:48;;;;;;;24.33;15.20;;;13.90;69.10;;;;;;6306471;22;19996;-75
2023/02/25 06:54:15;;;;;;;22.73;15.63;;;13.90;69.00;;;;;;6306389;22;20022;-73
2023/02/25 06:56:41;;;;;;;20.63;14.60;;;13.90;69.00;;;;;;6306362;22;19999;-74
2023/02/25 06:59:07;;;;;;;24.80;14.80;;;13.90;68.60;;;;;;6305790;22;20375;-74
2023/02/25 07:01:36;;;;;;;25.45;14.90;;;13.90;68.80;;;;;;6306176;22;20490;-74
2023/02/25 07:04:02;;;;;;;26.30;13.88;;;13.90;68.60;;;;;;6306498;22;20041;-74
2023/02/25 07:06:28;;;;;;;26.27;15.00;;;13.90;68.50;;;;;;6279247;22;20007;-73
2023/02/25 07:08:54;;;;;;;25.45;14.88;;;13.90;69.00;;;;;;6306577;22;20429;-73
2023/02/25 07:11:20;;;;;;;20.85;13.27;;;14.00;68.40;;;;;;6306475;22;20329;-73
2023/02/25 07:13:47;;;;;;;20.73;13.35;;;14.00;68.40;;;;;;6305911;22;20086;-73
2023/02/25 07:16:15;;;;;;;22.50;13.95;;;14.00;68.40;;;;;;6306032;22;19995;-74
2023/02/25 07:18:42;;;;;;;25.15;15.15;;;14.00;68.40;;;;;;6305631;22;20432;-74
2023/02/25 07:21:11;;;;;;;24.40;14.35;;;14.10;68.40;;;;;;6306035;22;20064;-74
2023/02/25 07:23:36;;;;;;;27.67;15.60;;;14.20;68.50;;;;;;6306115;22;19999;-74
2023/02/25 07:26:07;;;;;;;29.42;14.20;;;14.20;68.40;;;;;;6306135;22;20397;-73
2023/02/25 07:28:33;;;;;;;24.77;13.55;;;14.20;68.30;;;;;;6305871;22;20033;-75
2023/02/25 07:31:06;;;;;;;25.17;13.18;;;14.10;68.40;;;;;;6305702;22;20337;-74
2023/02/25 07:33:32;;;;;;;23.13;14.07;;;14.10;68.20;;;;;;6305958;22;20007;-74
2023/02/25 07:35:57;;;;;;;20.45;13.25;;;14.10;68.50;;;;;;6306742;22;20474;-74
2023/02/25 07:38:23;;;;;;;24.35;14.00;;;14.20;68.30;;;;;;6307469;22;20524;-74
2023/02/25 07:40:49;;;;;;;22.25;14.60;;;14.20;68.30;;;;;;6307915;22;20078;-74
2023/02/25 07:43:15;;;;;;;28.13;14.40;;;14.30;68.40;;;;;;6285454;22;20090;-75
2023/02/25 07:45:41;;;;;;;27.30;14.32;;;14.30;68.20;;;;;;6328375;22;19999;-72
2023/02/25 07:48:06;;;;;;;21.00;13.30;;;14.30;68.20;;;;;;6315875;22;20089;-74
2023/02/25 07:50:33;;;;;;;23.48;13.52;;;14.40;68.30;;;;;;6281393;22;20011;-75
2023/02/25 07:52:58;;;;;;;33.80;15.27;;;14.40;68.10;;;;;;6307793;22;20056;-73
2023/02/25 07:55:25;;;;;;;25.20;16.10;;;14.40;68.00;;;;;;6307791;22;20011;-73
2023/02/25 07:57:50;;;;;;;27.83;15.18;;;14.50;68.20;;;;;;6308102;22;20022;-73
2023/02/25 08:00:16;;;;;;;36.42;18.70;;;14.60;68.00;;;;;;6280101;22;20072;-72
2023/02/25 08:02:43;;;;;;;34.58;16.80;;;14.70;68.20;;;;;;6308212;22;20005;-74
2023/02/25 08:05:10;;;;;;;32.25;15.93;;;14.70;68.00;;;;;;6307920;22;20004;-74
2023/02/25 08:07:35;;;;;;;31.30;13.70;;;14.80;68.00;;;;;;6307827;22;20003;-73
2023/02/25 08:10:02;;;;;;;23.85;13.27;;;14.80;67.60;;;;;;6308099;22;20417;-73
2023/02/25 08:12:27;;;;;;;24.88;14.20;;;14.80;67.70;;;;;;6279981;22;20030;-74
2023/02/25 08:14:54;;;;;;;24.08;13.68;;;14.80;67.80;;;;;;6307420;22;20019;-74
2023/02/25 08:17:20;;;;;;;28.30;15.40;;;14.90;67.70;;;;;;6307229;22;19999;-74
2023/02/25 08:19:45;;;;;;;33.17;14.35;;;15.00;67.90;;;;;;6307569;22;20437;-74
2023/02/25 08:22:11;;;;;;;24.73;14.10;;;15.00;67.70;;;;;;6279452;22;20042;-73
2023/02/25 08:24:40;;;;;;;28.90;15.43;;;15.10;67.50;;;;;;6280009;22;20452;-73
2023/02/25 08:27:09;;;;;;;26.10;14.70;;;15.10;67.40;;;;;;6307680;22;20329;-71
2023/02/25 08:29:36;;;;;;;28.00;15.30;;;15.10;67.20;;;;;;6307137;22;20035;-74
2023/02/25 08:32:02;;;;;;;26.40;14.63;;;15.00;67.10;;;;;;6280092;22;20007;-73
2023/02/25 08:34:28;;;;;;;23.58;14.93;;;15.00;67.10;;;;;;6307245;22;20011;-76
2023/02/25 08:36:53;;;;;;;26.30;14.23;;;14.90;67.10;;;;;;6307451;22;19999;-73
2023/02/25 08:39:19;;;;;;;25.67;15.07;;;14.90;67.20;;;;;;6307454;22;20449;-74
2023/02/25 08:41:45;;;;;;;28.05;15.60;;;14.90;67.20;;;;;;6307939;22;20027;-72
2023/02/25 08:44:11;;;;;;;51.20;16.85;;;15.00;67.30;;;;;;6307728;22;20000;-71
2023/02/25 08:46:36;;;;;;;29.50;16.52;;;15.10;67.40;;;;;;6307102;22;20031;-70
2023/02/25 08:49:03;;;;;;;28.33;15.15;;;15.10;67.20;;;;;;6306362;22;20124;-71
2023/02/25 08:51:33;;;;;;;31.35;16.42;;;15.20;67.00;;;;;;6279151;22;20003;-70
2023/02/25 08:54:07;;;;;;;32.65;15.68;;;15.30;67.00;;;;;;6306286;22;20011;-70
2023/02/25 08:56:34;;;;;;;30.05;15.45;;;15.30;67.40;;;;;;6306787;22;20005;-68
2023/02/25 08:59:00;;;;;;;32.10;15.45;;;15.20;66.70;;;;;;6306894;22;20467;-69
2023/02/25 09:01:43;;;;;;;28.33;13.95;;;15.20;66.70;;;;;;6306503;22;20012;-69
2023/02/25 09:04:21;;;;;;;29.90;13.25;;;15.20;66.80;;;;;;6279196;22;20118;-67
2023/02/25 09:06:47;;;;;;;38.03;14.30;;;15.10;67.20;;;;;;6307215;22;19996;-70
2023/02/25 09:09:18;;;;;;;33.47;14.77;;;15.10;66.60;;;;;;6306794;22;19999;-70
2023/02/25 09:11:45;;;;;;;31.05;14.02;;;15.20;66.50;;;;;;6306871;22;20090;-68
2023/02/25 09:14:11;;;;;;;42.20;17.23;;;15.20;66.60;;;;;;6279263;22;20021;-70
2023/02/25 09:16:37;;;;;;;29.75;14.52;;;15.30;67.00;;;;;;6306635;22;19996;-70
2023/02/25 09:19:03;;;;;;;32.78;15.90;;;15.30;67.00;;;;;;6279127;22;20018;-70
2023/02/25 09:21:28;;;;;;;29.27;14.55;;;15.40;66.90;;;;;;6306610;22;20007;-71
2023/02/25 09:23:54;;;;;;;30.27;13.27;;;15.40;66.80;;;;;;6306552;22;20003;-71
2023/02/25 09:26:21;;;;;;;28.25;12.48;;;15.40;67.00;;;;;;6306451;22;19995;-72
2023/02/25 09:28:48;;;;;;;24.05;11.45;;;15.50;66.70;;;;;;6305813;22;20005;-76
2023/02/25 09:31:15;;;;;;;21.73;11.38;;;15.70;66.90;;;;;;6279389;22;20003;-76
2023/02/25 09:33:42;;;;;;;25.60;10.38;;;15.80;66.90;;;;;;6306783;22;20011;-75
2023/02/25 09:36:13;;;;;;;21.38;10.00;;;16.00;66.90;;;;;;6306716;22;19995;-76
2023/02/25 09:38:41;;;;;;;22.25;9.85;;;16.10;67.50;;;;;;6306912;22;20010;-75
2023/02/25 09:41:36;;;;;;;21.02;10.18;;;16.20;66.70;;;;;;6279678;22;20412;-74
2023/02/25 09:44:07;;;;;;;23.95;11.15;;;16.30;67.60;;;;;;6307123;22;20003;-73
2023/02/25 09:46:36;;;;;;;19.73;10.00;;;16.40;67.70;;;;;;6306344;22;20045;-72
2023/02/25 09:49:14;;;;;;;19.13;10.02;;;16.50;66.80;;;;;;6306908;22;19999;-72
2023/02/25 09:51:46;;;;;;;22.27;9.98;;;16.60;67.60;;;;;;6306347;22;20035;-72
2023/02/25 09:54:35;;;;;;;26.17;9.38;;;16.60;66.70;;;;;;6306539;22;20018;-72
2023/02/25 09:57:04;;;;;;;22.13;8.13;;;16.80;66.60;;;;;;6306064;22;20098;-71
2023/02/25 09:59:31;;;;;;;18.90;7.47;;;16.90;66.70;;;;;;6306769;22;20026;-72
2023/02/25 10:02:26;;;;;;;23.05;8.23;;;17.00;66.60;;;;;;6306056;22;20018;-72
2023/02/25 10:05:17;;;;;;;22.27;8.95;;;17.00;66.30;;;;;;6306145;22;20011;-73
2023/02/25 10:08:06;;;;;;;17.90;7.88;;;17.10;66.80;;;;;;6307042;22;20003;-72
2023/02/25 10:11:00;;;;;;;20.98;8.68;;;17.20;66.70;;;;;;6306715;22;19995;-72
2023/02/25 10:13:44;;;;;;;21.10;8.32;;;17.30;66.70;;;;;;6306430;22;19999;-71
2023/02/25 10:16:16;;;;;;;22.85;9.55;;;17.40;66.40;;;;;;6306594;22;20011;-72
2023/02/25 10:19:14;;;;;;;18.83;8.85;;;17.40;66.30;;;;;;6306888;22;20429;-72
2023/02/25 10:21:48;;;;;;;22.75;9.30;;;17.50;66.30;;;;;;6299175;22;20339;-71
2023/02/25 10:24:33;;;;;;;22.63;9.32;;;17.50;66.30;;;;;;6307397;22;20394;-71
2023/02/25 10:27:14;;;;;;;24.75;9.52;;;17.60;65.80;;;;;;6313870;22;20058;-72
2023/02/25 10:29:48;;;;;;;20.40;9.80;;;17.70;66.20;;;;;;6331105;22;20031;-73
2023/02/25 10:32:20;;;;;;;23.58;9.20;;;17.70;65.90;;;;;;6326175;22;20325;-72
2023/02/25 10:34:46;;;;;;;19.08;8.80;;;17.80;65.90;;;;;;6307565;22;20406;-73
2023/02/25 10:37:18;;;;;;;20.02;8.35;;;17.80;65.70;;;;;;6313053;22;19995;-72
2023/02/25 10:39:47;;;;;;;20.05;9.15;;;17.90;65.80;;;;;;6308681;22;20050;-72
2023/02/25 10:42:15;;;;;;;23.92;9.75;;;17.90;65.70;;;;;;6279110;22;20444;-73
2023/02/25 10:44:43;;;;;;;26.20;9.02;;;18.00;65.90;;;;;;6306242;22;20018;-74
2023/02/25 10:47:13;;;;;;;17.27;7.85;;;18.00;65.80;;;;;;6305994;22;20522;-72
2023/02/25 10:49:39;;;;;;;22.95;9.68;;;18.00;66.10;;;;;;6305915;22;20329;-72
2023/02/25 10:52:17;;;;;;;25.10;9.13;;;18.00;66.10;;;;;;6306104;22;19999;-72
2023/02/25 10:54:51;;;;;;;19.00;8.40;;;18.00;65.90;;;;;;6306409;22;20106;-71
2023/02/25 10:57:38;;;;;;;22.50;8.98;;;18.10;66.20;;;;;;6306418;22;20000;-72
2023/02/25 11:00:20;;;;;;;26.05;9.57;;;18.10;66.10;;;;;;6305984;22;20062;-72
2023/02/25 11:02:50;;;;;;;24.90;10.48;;;18.10;66.10;;;;;;6306170;22;20003;-72
2023/02/25 11:05:48;;;;;;;24.05;8.93;;;18.20;66.30;;;;;;6278545;22;20004;-71
2023/02/25 11:08:31;;;;;;;27.67;10.35;;;18.20;66.10;;;;;;6228714;22;20082;-73
2023/02/25 11:11:13;;;;;;;27.27;10.05;;;18.30;66.20;;;;;;6306546;22;20003;-72
2023/02/25 11:13:39;;;;;;;20.75;8.98;;;18.40;66.50;;;;;;6307934;22;20007;-72
2023/02/25 11:16:12;;;;;;;29.02;9.50;;;18.40;66.30;;;;;;6308269;22;20085;-73
2023/02/25 11:18:39;;;;;;;17.15;8.18;;;18.40;66.20;;;;;;6307893;22;20433;-72
2023/02/25 11:21:09;;;;;;;22.30;8.13;;;18.30;66.20;;;;;;6308598;22;20065;-73
2023/02/25 11:23:43;;;;;;;23.98;8.48;;;18.30;66.70;;;;;;6308439;22;20002;-72
2023/02/25 11:26:33;;;;;;;24.40;8.52;;;18.30;67.00;;;;;;6307940;22;20070;-72
2023/02/25 11:29:11;;;;;;;27.00;8.63;;;18.20;67.10;;;;;;6308190;22;19995;-73
2023/02/25 11:31:39;;;;;;;28.08;8.93;;;18.20;67.20;;;;;;6307957;22;20003;-72
2023/02/25 11:34:32;;;;;;;26.33;9.55;;;18.20;66.90;;;;;;6307834;22;20112;-73
2023/02/25 11:37:36;;;;;;;21.83;7.70;;;18.20;67.00;;;;;;6303008;22;20010;-73
2023/02/25 11:40:18;;;;;;;30.20;8.30;;;18.20;67.40;;;;;;6307774;22;20074;-72
2023/02/25 11:43:04;;;;;;;20.92;8.75;;;18.20;67.20;;;;;;6307103;22;20042;-73
2023/02/25 11:45:37;;;;;;;28.23;8.27;;;18.20;67.20;;;;;;6307725;22;20433;-72
2023/02/25 11:48:13;;;;;;;27.38;8.55;;;18.30;67.00;;;;;;6307889;22;20491;-72
2023/02/25 11:51:15;;;;;;;24.42;8.63;;;18.30;66.70;;;;;;6307228;22;20078;-71
2023/02/25 11:54:00;;;;;;;22.67;8.73;;;18.30;67.00;;;;;;6307217;22;20039;-72
2023/02/25 11:56:35;;;;;;;25.67;9.27;;;18.30;67.00;;;;;;6307084;22;20041;-73
2023/02/25 11:59:29;;;;;;;21.35;8.55;;;18.40;67.20;;;;;;6307478;22;20022;-73
2023/02/25 12:02:26;;;;;;;20.05;8.55;;;18.40;66.80;;;;;;6307480;22;20290;-72
2023/02/25 12:05:13;;;;;;;24.00;8.18;;;18.40;66.70;;;;;;6295749;22;20003;-72
2023/02/25 12:07:58;;;;;;;22.92;8.55;;;18.40;66.60;;;;;;6307530;22;19999;-74
2023/02/25 12:11:01;;;;;;;23.30;8.63;;;18.40;66.80;;;;;;6307400;22;19999;-72
2023/02/25 12:13:32;;;;;;;20.48;8.45;;;18.40;66.50;;;;;;6307413;22;20003;-71
2023/02/25 12:16:28;;;;;;;22.35;8.70;;;18.50;66.70;;;;;;6307596;22;20425;-72
2023/02/25 12:19:04;;;;;;;23.73;9.93;;;18.50;66.40;;;;;;6307771;22;20005;-72
2023/02/25 12:21:48;;;;;;;21.15;9.05;;;18.50;66.60;;;;;;6308063;22;20003;-72
2023/02/25 12:24:32;;;;;;;22.00;8.18;;;18.50;66.30;;;;;;6307067;22;20003;-72
2023/02/25 12:27:32;;;;;;;26.20;9.15;;;18.60;66.30;;;;;;6307514;22;20082;-71
2023/02/25 12:30:20;;;;;;;26.52;8.95;;;18.70;66.40;;;;;;6307397;22;19995;-73
2023/02/25 12:33:05;;;;;;;28.42;9.77;;;18.70;66.20;;;;;;6307770;22;19999;-72
2023/02/25 12:36:05;;;;;;;21.15;8.48;;;18.80;66.40;;;;;;6308081;22;20429;-73
2023/02/25 12:38:48;;;;;;;26.60;8.88;;;18.80;65.80;;;;;;6308362;22;20322;-73
2023/02/25 12:41:30;;;;;;;28.30;8.82;;;18.80;65.80;;;;;;6307856;22;20006;-73
2023/02/25 12:44:19;;;;;;;23.50;8.57;;;18.90;65.60;;;;;;6307706;22;20437;-71
2023/02/25 12:47:22;;;;;;;27.35;10.23;;;18.90;65.40;;;;;;6308014;22;20050;-72
2023/02/25 12:49:59;;;;;;;19.90;7.22;;;19.00;65.10;;;;;;6307424;22;20070;-72
2023/02/25 12:53:02;;;;;;;21.85;9.50;;;19.00;64.80;;;;;;6307616;22;20550;-73